createdAt,value
2023-07-09T00:00:53.392Z,18.05
2023-07-09T00:05:57.733Z,18.33
2023-07-09T00:11:02.114Z,18.13
2023-07-09T00:16:15.614Z,17.93
2023-07-09T00:21:21.483Z,17.87
2023-07-09T00:26:26.066Z,18.06
2023-07-09T00:31:31.719Z,17.78
2023-07-09T00:36:36.547Z,17.56
2023-07-09T00:41:40.693Z,17.25
2023-07-09T00:47:19.679Z,17.56
2023-07-09T00:52:30.930Z,17.77
2023-07-09T00:57:35.094Z,17.28
2023-07-09T01:02:46.527Z,17.58
2023-07-09T01:07:50.656Z,17.29
2023-07-09T01:12:54.979Z,17.63
2023-07-09T01:18:01.184Z,17.44
2023-07-09T01:23:07.234Z,17.44
2023-07-09T01:28:11.880Z,17.48
2023-07-09T01:33:16.030Z,17.23
2023-07-09T01:38:22.424Z,17.11
2023-07-09T01:43:29.976Z,17.09
2023-07-09T01:48:34.343Z,17.40
2023-07-09T01:53:41.881Z,17.12
2023-07-09T01:58:46.054Z,16.85
2023-07-09T02:03:51.321Z,17.28
2023-07-09T02:08:57.105Z,17.06
2023-07-09T02:14:01.281Z,16.55
2023-07-09T02:19:06.079Z,16.66
2023-07-09T02:24:11.878Z,16.79
2023-07-09T02:29:19.024Z,16.51
2023-07-09T02:34:26.783Z,16.35
2023-07-09T02:39:32.401Z,16.13
2023-07-09T02:44:36.669Z,16.13
2023-07-09T02:49:43.740Z,16.33
2023-07-09T02:54:49.442Z,15.97
2023-07-09T02:59:54.954Z,15.88
2023-07-09T03:05:01.080Z,16.00
2023-07-09T03:10:07.505Z,15.93
2023-07-09T03:15:12.516Z,15.50
2023-07-09T03:20:16.922Z,15.60
2023-07-09T03:25:22.526Z,15.99
2023-07-09T03:30:26.721Z,15.83
2023-07-09T03:35:31.543Z,15.88
2023-07-09T03:40:38.459Z,15.89
2023-07-09T03:45:42.676Z,16.13
2023-07-09T03:50:48.268Z,15.79
2023-07-09T03:55:57.882Z,15.55
2023-07-09T04:01:02.158Z,15.61
2023-07-09T04:06:06.608Z,15.44
2023-07-09T04:11:13.197Z,15.61
2023-07-09T04:16:17.403Z,15.76
2023-07-09T04:21:21.595Z,15.64
2023-07-09T04:26:28.699Z,15.45
2023-07-09T04:31:32.864Z,15.97
2023-07-09T04:36:37.567Z,15.90
2023-07-09T04:41:43.646Z,15.99
2023-07-09T04:46:48.273Z,16.49
2023-07-09T04:51:52.335Z,16.32
2023-07-09T04:56:58.297Z,16.28
2023-07-09T05:02:02.527Z,16.82
2023-07-09T05:07:07.565Z,16.92
2023-07-09T05:12:13.460Z,17.11
2023-07-09T05:17:17.795Z,17.43
2023-07-09T05:22:21.927Z,17.35
2023-07-09T05:27:27.564Z,17.60
2023-07-09T05:32:35.171Z,17.66
2023-07-09T05:37:39.616Z,17.51
2023-07-09T05:42:45.385Z,17.63
2023-07-09T05:47:50.381Z,17.77
2023-07-09T05:52:57.869Z,17.86
2023-07-09T05:58:06.117Z,18.22
2023-07-09T06:03:12.162Z,18.29
2023-07-09T06:08:16.785Z,18.47
2023-07-09T06:13:23.811Z,18.47
2023-07-09T06:18:31.225Z,18.62
2023-07-09T06:23:35.671Z,18.87
2023-07-09T06:28:41.325Z,19.17
2023-07-09T06:33:45.741Z,19.35
2023-07-09T06:38:49.988Z,19.50
2023-07-09T06:43:55.776Z,19.58
2023-07-09T06:49:00.107Z,19.74
2023-07-09T06:54:06.204Z,19.71
2023-07-09T06:59:12.227Z,19.81
2023-07-09T07:04:17.011Z,20.01
2023-07-09T07:09:21.295Z,19.96
2023-07-09T07:14:28.157Z,19.98
2023-07-09T07:19:32.596Z,20.22
2023-07-09T07:24:36.667Z,20.26
2023-07-09T07:29:42.446Z,20.34
2023-07-09T07:34:49.089Z,20.66
2023-07-09T07:39:53.492Z,20.82
2023-07-09T07:45:00.009Z,20.57
2023-07-09T07:50:05.527Z,20.74
2023-07-09T07:55:14.578Z,20.99
2023-07-09T08:00:22.642Z,20.97
2023-07-09T08:05:26.874Z,21.08
2023-07-09T08:10:31.278Z,21.29
2023-07-09T08:15:36.917Z,21.60
2023-07-09T08:20:46.570Z,22.02
2023-07-09T08:25:55.295Z,22.45
2023-07-09T08:31:00.980Z,22.75
2023-07-09T08:36:06.189Z,23.20
2023-07-09T08:41:29.206Z,23.64
2023-07-09T08:46:45.504Z,24.06
2023-07-09T08:51:51.459Z,24.32
2023-07-09T08:56:56.674Z,24.69
2023-07-09T09:02:07.327Z,25.02
2023-07-09T09:07:22.081Z,24.96
2023-07-09T09:12:31.227Z,25.33
2023-07-09T09:17:40.940Z,25.66
2023-07-09T09:22:50.669Z,25.67
2023-07-09T09:27:55.162Z,25.73
2023-07-09T09:33:04.010Z,26.11
2023-07-09T09:38:13.589Z,26.09
2023-07-09T09:43:22.329Z,26.36
2023-07-09T09:48:32.817Z,26.24
2023-07-09T09:53:43.324Z,26.20
2023-07-09T09:58:47.778Z,26.46
2023-07-09T10:03:57.292Z,26.69
2023-07-09T10:09:07.946Z,26.22
2023-07-09T10:14:26.256Z,26.32
2023-07-09T10:19:41.613Z,26.91
2023-07-09T10:24:59.553Z,26.98
2023-07-09T10:30:22.955Z,26.92
2023-07-09T10:35:38.519Z,27.13
2023-07-09T10:40:45.540Z,27.22
2023-07-09T10:45:56.086Z,27.06
2023-07-09T10:51:04.553Z,27.29
2023-07-09T10:56:12.937Z,27.44
2023-07-09T11:01:17.469Z,27.28
2023-07-09T11:06:30.738Z,27.16
2023-07-09T11:11:40.090Z,26.96
2023-07-09T11:16:46.113Z,27.41
2023-07-09T11:22:06.567Z,27.46
2023-07-09T11:27:20.556Z,27.57
2023-07-09T11:32:25.706Z,27.86
2023-07-09T11:37:33.341Z,28.08
2023-07-09T11:42:50.974Z,27.90
2023-07-09T11:48:05.672Z,27.85
2023-07-09T11:53:28.495Z,27.88
2023-07-09T11:58:32.640Z,27.66
2023-07-09T12:03:41.039Z,27.88
2023-07-09T12:08:48.702Z,27.68
2023-07-09T12:13:53.526Z,27.96
2023-07-09T12:18:58.244Z,28.00
2023-07-09T12:24:04.278Z,28.06
2023-07-09T12:29:15.615Z,27.64
2023-07-09T12:34:19.773Z,27.71
2023-07-09T12:39:29.644Z,27.96
2023-07-09T12:44:38.393Z,27.62
2023-07-09T12:49:44.619Z,27.76
2023-07-09T12:54:59.467Z,27.83
2023-07-09T13:00:03.824Z,27.80
2023-07-09T13:05:19.459Z,28.03
2023-07-09T13:10:29.453Z,27.90
2023-07-09T13:15:41.238Z,27.84
2023-07-09T13:20:48.337Z,27.67
2023-07-09T13:25:56.650Z,27.58
2023-07-09T13:31:03.474Z,27.72
2023-07-09T13:36:08.318Z,27.54
2023-07-09T13:41:17.663Z,27.48
2023-07-09T13:46:23.173Z,27.29
2023-07-09T13:51:29.660Z,27.38
2023-07-09T13:56:37.084Z,27.47
2023-07-09T14:01:41.652Z,27.53
2023-07-09T14:06:46.774Z,27.58
2023-07-09T14:11:53.987Z,27.58
2023-07-09T14:16:58.872Z,27.32
2023-07-09T14:22:03.218Z,27.09
2023-07-09T14:27:12.802Z,26.64
2023-07-09T14:32:36.058Z,26.67
2023-07-09T14:37:41.056Z,26.69
2023-07-09T14:42:47.414Z,26.59
2023-07-09T14:47:52.940Z,26.57
2023-07-09T14:52:57.431Z,26.58
2023-07-09T14:58:06.653Z,26.34
2023-07-09T15:03:12.619Z,26.03
2023-07-09T15:08:19.880Z,26.24
2023-07-09T15:13:31.741Z,26.22
2023-07-09T15:18:38.019Z,26.02
2023-07-09T15:23:45.893Z,25.91
2023-07-09T15:28:51.699Z,25.97
2023-07-09T15:33:55.902Z,25.75
2023-07-09T15:39:00.317Z,25.62
2023-07-09T15:44:07.618Z,25.25
2023-07-09T15:49:14.472Z,25.15
2023-07-09T15:54:20.594Z,25.21
2023-07-09T15:59:31.411Z,25.12
2023-07-09T16:04:35.784Z,25.26
2023-07-09T16:09:40.652Z,25.11
2023-07-09T16:14:46.762Z,25.01
2023-07-09T16:19:51.049Z,24.84
2023-07-09T16:24:55.423Z,24.44
2023-07-09T16:30:01.054Z,24.56
2023-07-09T16:35:05.960Z,24.42
2023-07-09T16:40:20.366Z,24.43
2023-07-09T16:45:28.973Z,24.39
2023-07-09T16:50:33.423Z,23.97
2023-07-09T16:55:38.469Z,23.90
2023-07-09T17:00:45.895Z,23.78
2023-07-09T17:05:52.857Z,23.66
2023-07-09T17:10:58.024Z,23.49
2023-07-09T17:16:04.040Z,23.57
2023-07-09T17:21:08.961Z,23.40
2023-07-09T17:26:15.728Z,23.38
2023-07-09T17:31:22.249Z,23.17
2023-07-09T17:36:27.571Z,23.11
2023-07-09T17:41:31.811Z,22.75
2023-07-09T17:46:37.539Z,22.72
2023-07-09T17:51:42.212Z,22.35
2023-07-09T17:56:48.286Z,22.25
2023-07-09T18:02:03.211Z,22.33
2023-07-09T18:07:20.911Z,22.23
2023-07-09T18:12:29.195Z,21.98
2023-07-09T18:17:36.963Z,21.81
2023-07-09T18:22:41.800Z,21.76
2023-07-09T18:27:48.178Z,21.75
2023-07-09T18:33:00.121Z,21.42
2023-07-09T18:38:06.692Z,21.48
2023-07-09T18:43:23.957Z,21.42
2023-07-09T18:48:38.454Z,21.40
2023-07-09T18:53:44.599Z,21.40
2023-07-09T18:58:48.727Z,21.50
2023-07-09T19:03:55.467Z,21.38
2023-07-09T19:09:02.548Z,21.47
2023-07-09T19:14:07.236Z,21.48
2023-07-09T19:19:24.558Z,21.60
2023-07-09T19:24:32.204Z,21.70
2023-07-09T19:29:37.414Z,21.57
2023-07-09T19:34:43.447Z,21.46
2023-07-09T19:39:48.439Z,21.56
2023-07-09T19:44:53.381Z,21.85
2023-07-09T19:50:01.738Z,21.61
2023-07-09T19:55:17.364Z,21.44
2023-07-09T20:00:24.258Z,20.99
2023-07-09T20:05:32.241Z,20.72
2023-07-09T20:16:04.866Z,20.53
2023-07-09T20:21:20.153Z,20.34
2023-07-09T20:26:24.360Z,20.12
2023-07-09T20:31:28.853Z,19.89
2023-07-09T20:36:34.311Z,19.76
2023-07-09T20:41:39.851Z,19.64
2023-07-09T20:46:44.237Z,19.63
2023-07-09T20:51:50.985Z,19.68
2023-07-09T20:56:57.462Z,19.47
2023-07-09T21:02:01.554Z,19.36
2023-07-09T21:07:13.001Z,19.20
2023-07-09T21:12:19.949Z,19.22
2023-07-09T21:17:33.429Z,19.23
2023-07-09T21:22:39.156Z,19.19
2023-07-09T21:27:43.193Z,19.03
2023-07-09T21:32:48.682Z,18.99
2023-07-09T21:37:57.127Z,18.85
2023-07-09T21:43:02.954Z,18.80
2023-07-09T21:48:13.979Z,18.72
2023-07-09T21:53:23.531Z,18.62
2023-07-09T21:58:35.097Z,18.24
2023-07-09T22:03:39.409Z,18.34
2023-07-09T22:08:47.570Z,18.35
2023-07-09T22:13:55.611Z,17.98
2023-07-09T22:18:59.694Z,17.98
2023-07-09T22:24:06.361Z,17.88
2023-07-09T22:29:10.902Z,17.95
2023-07-09T22:34:21.068Z,17.83
2023-07-09T22:39:26.682Z,17.74
2023-07-09T22:44:34.582Z,17.63
2023-07-09T22:49:39.437Z,17.20
2023-07-09T22:54:45.827Z,17.41
2023-07-09T22:59:50.191Z,17.56
2023-07-09T23:04:54.960Z,17.49
2023-07-09T23:10:00.622Z,17.27
2023-07-09T23:15:05.113Z,17.30
2023-07-09T23:20:15.798Z,17.28
2023-07-09T23:25:22.432Z,16.71
2023-07-09T23:30:28.691Z,16.47
2023-07-09T23:35:34.540Z,16.83
2023-07-09T23:40:40.360Z,16.92
2023-07-09T23:45:45.328Z,17.09
2023-07-09T23:50:49.549Z,16.87
2023-07-09T23:55:55.795Z,16.86
